Terminal Aerodrome Forecast
Issued by NWS Portland, OR

Home | Current Version | Previous Version | Text Only | Print | Product List | Glossary On
Versions: 1 2 3 4 5 6 7 8 9 10 11 12 13 14 15 16 17 18 19 20 21 22 23 24 25 26 27 28 29 30 31 32
000
FTUS46 KPQR 232335
TAFPDX
TAF
KPDX 232335Z 2400/2424 21010KT P6SM -SHRA SCT025 OVC050
     FM240500 17008KT P6SM -RA SCT025 OVC035
     FM241400 16012G18KT P6SM -RA SCT025 OVC035
     FM241900 22008KT P6SM -SHRA SCT030 OVC040=

USA.gov is the U.S. government's official web portal to all federal, state and local government web resources and services.